L'Isle-Verte, Canada
Current Conditions -  °F | °C
As of 4:00 PM on Monday 22 Dec 2014 (Local Time) from CYYY Reporting Station
Light Snow Light Snow  
Wind Chill: 23°   Ceiling: 1500
Heat Index: 23°   Visibility: 15mi
Dew Point: 18°   Wind: 3mph
Humidity: 80%   Direction: 210°SSW
Pressure: 30.43"   Gusts: NA
Location:  48.02°N, 69.33°W
Report Text: CYYY 222100Z 21003KT 15SM -SN BKN015 OVC020 M05/M08 A3043 RMK SC6SC2 SLP307
Loading
Personal Weather Stations






























Interactive Weather Map New forecast layout! Learn more

10-Day Weather Forecast

Advertisements
Track Severe Weather on mobile